Time;durP1;ratioP1;P1;durP2;ratioP2;P2;SDS_P1;SDS_P2;PMS_P1;PMS_P2;Temp;Humidity;BMP_temperature;BMP_pressure;BME280_temperature;BME280_humidity;BME280_pressure;Samples;Min_cycle;Max_cycle;Signal;HPM_P1;HPM_P2
2022/09/19 00:00:44;;;;;;;18.03;5.87;;;9.10;99.90;;;;;;5052363;28;20179;-70
2022/09/19 00:03:10;;;;;;;14.77;6.40;;;9.00;99.90;;;;;;5053570;28;20181;-70
2022/09/19 00:05:42;;;;;;;14.57;5.90;;;9.10;99.90;;;;;;5052379;28;20171;-70
2022/09/19 00:08:08;;;;;;;14.53;5.43;;;9.00;99.90;;;;;;5053493;28;20178;-70
2022/09/19 00:10:39;;;;;;;15.20;5.87;;;9.00;99.90;;;;;;5051941;28;20178;-70
2022/09/19 00:13:07;;;;;;;19.27;5.70;;;9.00;99.90;;;;;;5053329;28;20178;-70
2022/09/19 00:15:34;;;;;;;14.90;5.87;;;9.00;99.90;;;;;;5053569;28;20195;-70
2022/09/19 00:18:00;;;;;;;17.53;6.10;;;9.00;99.90;;;;;;5053480;28;20173;-70
2022/09/19 00:20:26;;;;;;;12.83;5.53;;;9.00;99.90;;;;;;5053358;28;20173;-70
2022/09/19 00:25:36;;;;;;;17.27;6.07;;;8.90;99.90;;;;;;5053415;28;20213;-70
2022/09/19 00:28:02;;;;;;;18.17;5.93;;;8.90;99.90;;;;;;5053475;28;20178;-70
2022/09/19 00:30:27;;;;;;;20.83;6.47;;;8.90;99.90;;;;;;5053276;28;20182;-70
2022/09/19 00:32:53;;;;;;;27.47;6.60;;;8.90;99.90;;;;;;5053104;28;20183;-70
2022/09/19 00:35:20;;;;;;;14.77;6.70;;;8.90;99.90;;;;;;5054058;28;20226;-70
2022/09/19 00:37:46;;;;;;;16.87;6.83;;;8.80;99.90;;;;;;5088511;28;20263;-70
2022/09/19 00:40:12;;;;;;;19.17;6.57;;;8.80;99.90;;;;;;5092918;28;20244;-70
2022/09/19 00:42:38;;;;;;;17.77;6.00;;;8.80;99.90;;;;;;5065586;28;20178;-70
2022/09/19 00:45:12;;;;;;;10.17;5.57;;;8.90;99.90;;;;;;5051750;28;20182;-70
2022/09/19 00:47:44;;;;;;;14.97;6.03;;;8.80;99.90;;;;;;5053075;28;20224;-70
2022/09/19 00:50:20;;;;;;;17.97;5.40;;;8.80;99.90;;;;;;5053496;28;20190;-70
2022/09/19 00:52:58;;;;;;;17.70;5.63;;;8.80;99.90;;;;;;5053238;28;20188;-70
2022/09/19 00:55:24;;;;;;;18.53;6.17;;;8.80;99.90;;;;;;5052978;28;20221;-70
2022/09/19 00:57:58;;;;;;;17.37;5.80;;;8.80;99.90;;;;;;5051788;28;20234;-70
2022/09/19 01:00:25;;;;;;;12.33;5.60;;;8.80;99.90;;;;;;5052979;28;20165;-70
2022/09/19 01:02:51;;;;;;;16.90;6.23;;;8.80;99.90;;;;;;5052187;28;20201;-70
2022/09/19 01:05:21;;;;;;;13.20;6.17;;;8.80;99.90;;;;;;5053411;28;20174;-69
2022/09/19 01:08:01;;;;;;;19.73;6.03;;;8.80;99.90;;;;;;5089942;28;20645;-69
2022/09/19 01:10:26;;;;;;;24.33;6.83;;;8.80;99.90;;;;;;5097206;28;20621;-69
2022/09/19 01:13:09;;;;;;;22.03;5.90;;;8.80;99.90;;;;;;5065631;28;20187;-69
2022/09/19 01:16:02;;;;;;;19.07;6.03;;;8.80;99.90;;;;;;5055557;28;20190;-69
2022/09/19 01:18:47;;;;;;;15.77;6.07;;;8.80;99.90;;;;;;5055501;28;20194;-69
2022/09/19 01:21:40;;;;;;;20.80;6.63;;;8.80;99.90;;;;;;5055534;28;20170;-69
2022/09/19 01:24:30;;;;;;;22.60;7.03;;;8.80;99.90;;;;;;5057087;28;20289;-69
2022/09/19 01:27:26;;;;;;;23.80;6.70;;;8.80;99.90;;;;;;5055380;28;20220;-69
2022/09/19 01:30:21;;;;;;;13.90;5.70;;;8.80;99.90;;;;;;5056254;28;20190;-69
2022/09/19 01:32:53;;;;;;;18.23;6.23;;;8.80;99.90;;;;;;5056323;28;20198;-69
2022/09/19 01:35:26;;;;;;;15.03;5.53;;;8.80;99.90;;;;;;5056511;28;20201;-69
2022/09/19 01:38:03;;;;;;;15.37;5.63;;;8.80;99.90;;;;;;5093723;28;20263;-69
2022/09/19 01:40:31;;;;;;;19.93;5.90;;;8.80;99.90;;;;;;5096439;28;20664;-69
2022/09/19 01:42:57;;;;;;;18.30;6.20;;;8.80;99.90;;;;;;5063985;28;20182;-69
2022/09/19 01:45:36;;;;;;;14.63;5.63;;;8.80;99.90;;;;;;5055012;28;20673;-69
2022/09/19 01:48:11;;;;;;;18.70;5.50;;;8.80;99.90;;;;;;5054815;28;20174;-69
2022/09/19 01:51:11;;;;;;;21.50;6.13;;;8.80;99.90;;;;;;5054935;28;20197;-69
2022/09/19 01:53:59;;;;;;;16.83;5.97;;;8.90;99.90;;;;;;5056539;28;20159;-69
2022/09/19 01:57:05;;;;;;;18.47;5.90;;;8.90;99.90;;;;;;5056040;28;20155;-69
2022/09/19 01:59:50;;;;;;;13.13;5.93;;;8.90;99.90;;;;;;5070575;28;20276;-69
2022/09/19 02:02:34;;;;;;;13.07;5.20;;;8.90;99.90;;;;;;5056122;28;20641;-69
2022/09/19 02:05:21;;;;;;;15.33;5.87;;;8.90;99.90;;;;;;5054835;28;20179;-69
2022/09/19 02:08:17;;;;;;;15.57;5.60;;;8.90;99.90;;;;;;5091737;28;20181;-69
2022/09/19 02:10:50;;;;;;;14.40;5.43;;;8.90;99.90;;;;;;5096043;28;20177;-70
2022/09/19 02:13:17;;;;;;;11.47;5.10;;;8.90;99.90;;;;;;5056641;28;20202;-70
2022/09/19 02:15:49;;;;;;;22.17;6.10;;;8.90;99.90;;;;;;5055807;28;20206;-69
2022/09/19 02:18:44;;;;;;;16.33;6.13;;;8.90;99.90;;;;;;5056205;28;20197;-69
2022/09/19 02:21:20;;;;;;;17.90;6.50;;;8.90;99.90;;;;;;5055006;28;20173;-69
2022/09/19 02:23:50;;;;;;;19.27;5.87;;;9.00;99.90;;;;;;5056290;28;20217;-70
2022/09/19 02:26:20;;;;;;;21.27;5.23;;;9.00;99.90;;;;;;5055633;28;20177;-69
2022/09/19 02:28:51;;;;;;;26.47;6.40;;;9.00;99.90;;;;;;5054441;28;20215;-69
2022/09/19 02:31:17;;;;;;;14.13;5.57;;;9.00;99.90;;;;;;5054503;28;20182;-69
2022/09/19 02:33:46;;;;;;;23.00;5.80;;;9.00;99.90;;;;;;5055632;28;20531;-70
2022/09/19 02:36:19;;;;;;;18.03;5.83;;;9.10;99.90;;;;;;5064692;28;20204;-70
2022/09/19 02:39:08;;;;;;;21.30;5.57;;;9.10;99.90;;;;;;5095962;28;20673;-70
2022/09/19 02:42:08;;;;;;;19.57;6.40;;;9.10;99.90;;;;;;5080397;28;20214;-69
2022/09/19 02:44:49;;;;;;;17.97;6.07;;;9.00;99.90;;;;;;5055051;28;20202;-69
2022/09/19 02:47:35;;;;;;;19.20;5.93;;;9.00;99.90;;;;;;5055541;28;20159;-69
2022/09/19 02:50:12;;;;;;;16.13;5.83;;;9.00;99.90;;;;;;5054920;28;20241;-69
2022/09/19 02:52:39;;;;;;;21.30;6.27;;;9.00;99.90;;;;;;5055551;28;20169;-69
2022/09/19 02:55:13;;;;;;;15.00;5.53;;;9.00;99.90;;;;;;5054604;28;20216;-70
2022/09/19 02:57:46;;;;;;;20.57;5.93;;;9.00;99.90;;;;;;5055418;28;20174;-69
2022/09/19 03:00:13;;;;;;;13.80;6.27;;;9.00;99.90;;;;;;5053693;28;20198;-70
2022/09/19 03:02:56;;;;;;;16.37;5.40;;;9.00;99.90;;;;;;5055670;28;20583;-70
2022/09/19 03:05:28;;;;;;;31.97;6.63;;;9.00;99.90;;;;;;5053825;28;20550;-71
2022/09/19 03:08:08;;;;;;;15.63;5.40;;;9.00;99.90;;;;;;5092662;28;20184;-70
2022/09/19 03:10:38;;;;;;;14.17;5.60;;;9.00;99.90;;;;;;5093806;28;20177;-70
2022/09/19 03:13:10;;;;;;;13.53;5.37;;;9.00;99.90;;;;;;5058877;28;20248;-70
2022/09/19 03:16:01;;;;;;;13.27;5.30;;;9.00;99.90;;;;;;5055009;28;20187;-71
2022/09/19 03:18:30;;;;;;;16.00;5.83;;;9.10;99.90;;;;;;5053534;28;20710;-70
2022/09/19 03:21:01;;;;;;;22.00;5.60;;;9.00;99.90;;;;;;5053787;28;20517;-70
2022/09/19 03:23:43;;;;;;;17.17;6.20;;;9.00;99.90;;;;;;5054643;28;20151;-70
2022/09/19 03:26:12;;;;;;;20.73;6.47;;;9.00;99.90;;;;;;5054506;28;20163;-70
2022/09/19 03:28:39;;;;;;;22.13;6.40;;;9.00;99.90;;;;;;5054516;28;20294;-70
2022/09/19 03:31:06;;;;;;;20.97;6.10;;;9.00;99.90;;;;;;5054518;28;20183;-70
2022/09/19 03:33:32;;;;;;;21.00;5.93;;;9.00;99.90;;;;;;5054679;28;20178;-70
2022/09/19 03:35:59;;;;;;;17.30;5.60;;;9.00;99.90;;;;;;5060098;28;20285;-70
2022/09/19 03:38:26;;;;;;;18.00;5.67;;;9.00;99.90;;;;;;5095274;28;20189;-70
2022/09/19 03:40:51;;;;;;;22.17;5.93;;;9.00;99.90;;;;;;5095063;28;20200;-70
2022/09/19 03:43:19;;;;;;;15.73;5.00;;;9.00;99.90;;;;;;5056351;28;20187;-70
2022/09/19 03:45:44;;;;;;;17.90;5.53;;;9.00;99.90;;;;;;5054579;28;20174;-70
2022/09/19 03:48:10;;;;;;;15.90;6.73;;;9.00;99.90;;;;;;5053031;28;20269;-70
2022/09/19 03:50:36;;;;;;;18.73;6.50;;;9.00;99.90;;;;;;5054257;28;20181;-70
2022/09/19 03:53:02;;;;;;;26.63;6.30;;;9.00;99.90;;;;;;5054190;28;20253;-70
2022/09/19 03:55:28;;;;;;;22.73;6.40;;;9.00;99.90;;;;;;5053994;28;20198;-70
2022/09/19 03:57:53;;;;;;;23.90;6.07;;;9.00;99.90;;;;;;5054132;28;20190;-70
2022/09/19 04:00:19;;;;;;;16.40;6.23;;;9.00;99.90;;;;;;5054177;28;20593;-70
2022/09/19 04:02:45;;;;;;;17.63;5.93;;;9.00;99.90;;;;;;5054392;28;20220;-71
2022/09/19 04:05:13;;;;;;;17.27;6.30;;;9.00;99.90;;;;;;5053843;28;20274;-70
2022/09/19 04:07:38;;;;;;;21.50;6.50;;;9.00;99.90;;;;;;5087303;28;20181;-70
2022/09/19 04:10:06;;;;;;;16.13;5.70;;;9.00;99.90;;;;;;5094027;28;20712;-70
2022/09/19 04:12:33;;;;;;;22.60;6.17;;;9.00;99.90;;;;;;5068074;28;20186;-70
2022/09/19 04:15:00;;;;;;;12.90;5.63;;;9.00;99.90;;;;;;5054070;28;20190;-70
2022/09/19 04:17:27;;;;;;;13.57;6.27;;;9.00;99.90;;;;;;5053864;28;20182;-70
2022/09/19 04:19:53;;;;;;;20.23;6.40;;;9.00;99.90;;;;;;5052734;28;20224;-71
2022/09/19 04:22:21;;;;;;;17.30;6.43;;;9.00;99.90;;;;;;5052710;28;20178;-70
2022/09/19 04:24:48;;;;;;;22.13;7.50;;;9.10;99.90;;;;;;5052541;28;20556;-70
2022/09/19 04:27:13;;;;;;;14.37;5.83;;;9.10;99.90;;;;;;5052190;28;20186;-70
2022/09/19 04:29:42;;;;;;;20.40;6.03;;;9.10;99.90;;;;;;5052537;28;20197;-70
2022/09/19 04:32:09;;;;;;;13.17;5.93;;;9.10;99.90;;;;;;5052544;28;20623;-70
2022/09/19 04:34:35;;;;;;;16.97;6.07;;;9.20;99.90;;;;;;5053730;28;20659;-70
2022/09/19 04:37:03;;;;;;;20.10;5.77;;;9.20;99.90;;;;;;5077111;28;20177;-70
2022/09/19 04:39:32;;;;;;;14.40;5.80;;;9.30;99.90;;;;;;5093473;28;20192;-71
2022/09/19 04:42:00;;;;;;;19.17;6.50;;;9.30;99.90;;;;;;5077762;28;20269;-70
2022/09/19 04:44:29;;;;;;;19.17;6.20;;;9.30;99.90;;;;;;5056884;28;20202;-69
2022/09/19 04:46:55;;;;;;;16.97;6.20;;;9.40;99.90;;;;;;5058259;28;20201;-70
2022/09/19 04:49:22;;;;;;;12.83;6.00;;;9.40;99.90;;;;;;5057718;28;20630;-70
2022/09/19 04:51:48;;;;;;;19.40;5.80;;;9.40;99.90;;;;;;5056499;28;20216;-70
2022/09/19 04:54:14;;;;;;;26.40;7.20;;;9.40;99.90;;;;;;5056484;28;20210;-70
2022/09/19 04:56:44;;;;;;;17.47;6.60;;;9.40;99.90;;;;;;5055953;28;20266;-70
2022/09/19 04:59:10;;;;;;;18.67;6.20;;;9.40;99.90;;;;;;5056391;28;20743;-70
2022/09/19 05:01:36;;;;;;;19.67;6.90;;;9.40;99.90;;;;;;5056133;28;20178;-70
2022/09/19 05:04:04;;;;;;;23.13;6.57;;;9.50;99.90;;;;;;5057238;28;20178;-70
2022/09/19 05:06:30;;;;;;;23.90;6.57;;;9.50;99.90;;;;;;5071684;28;20260;-70
2022/09/19 05:08:57;;;;;;;26.37;6.33;;;9.50;99.90;;;;;;5097703;28;20216;-70
2022/09/19 05:11:24;;;;;;;18.40;6.17;;;9.50;99.90;;;;;;5090130;28;20186;-70
2022/09/19 05:13:52;;;;;;;16.60;5.83;;;9.50;99.90;;;;;;5057262;28;20209;-70
2022/09/19 05:16:18;;;;;;;17.83;6.43;;;9.50;99.90;;;;;;5056042;28;20178;-70
2022/09/19 05:18:45;;;;;;;19.43;7.07;;;9.50;99.90;;;;;;5057542;28;20191;-70
2022/09/19 05:21:13;;;;;;;19.17;6.50;;;9.50;99.90;;;;;;5057684;28;20262;-71
2022/09/19 05:23:40;;;;;;;21.10;7.10;;;9.50;99.90;;;;;;5057383;28;20181;-70
2022/09/19 05:26:08;;;;;;;18.67;7.17;;;9.50;99.90;;;;;;5056812;28;20190;-70
2022/09/19 05:28:35;;;;;;;16.03;6.77;;;9.50;99.90;;;;;;5056636;28;20209;-70
2022/09/19 05:31:05;;;;;;;15.13;6.43;;;9.50;99.90;;;;;;5056805;28;20261;-70
2022/09/19 05:33:32;;;;;;;24.37;6.77;;;9.50;99.90;;;;;;5056906;28;20229;-70
2022/09/19 05:36:00;;;;;;;18.57;6.80;;;9.50;99.90;;;;;;5060620;28;20211;-70
2022/09/19 05:38:31;;;;;;;19.30;6.37;;;9.50;99.90;;;;;;5095418;28;20208;-70
2022/09/19 05:41:00;;;;;;;15.90;6.87;;;9.50;99.90;;;;;;5096326;28;20645;-70
2022/09/19 05:43:26;;;;;;;17.20;7.33;;;9.50;99.90;;;;;;5056283;28;20193;-71
2022/09/19 05:45:54;;;;;;;22.37;7.60;;;9.50;99.90;;;;;;5055164;28;20710;-71
2022/09/19 05:48:20;;;;;;;17.53;6.60;;;9.50;99.90;;;;;;5056339;28;20199;-72
2022/09/19 05:50:48;;;;;;;21.43;7.97;;;9.50;99.90;;;;;;5055056;28;20625;-70
2022/09/19 05:55:59;;;;;;;16.17;6.53;;;9.60;99.90;;;;;;5056050;28;20204;-71
2022/09/19 05:58:25;;;;;;;14.33;7.60;;;9.60;99.90;;;;;;5063952;28;20206;-70
2022/09/19 06:00:52;;;;;;;26.43;7.30;;;9.60;99.90;;;;;;5056191;28;20174;-70
2022/09/19 06:03:20;;;;;;;17.77;7.13;;;9.70;99.90;;;;;;5054926;28;20218;-70
2022/09/19 06:05:48;;;;;;;15.73;5.97;;;9.70;99.90;;;;;;5058058;28;20249;-70
2022/09/19 06:08:16;;;;;;;17.80;6.50;;;9.70;99.90;;;;;;5096274;28;20733;-70
2022/09/19 06:10:44;;;;;;;14.43;6.23;;;9.70;99.90;;;;;;5096126;28;20634;-70
2022/09/19 06:13:18;;;;;;;16.03;6.57;;;9.70;99.90;;;;;;5059742;28;20549;-70
2022/09/19 06:15:45;;;;;;;18.87;6.73;;;9.80;99.90;;;;;;5054402;28;20296;-70
2022/09/19 06:18:11;;;;;;;15.43;6.07;;;9.80;99.90;;;;;;5055708;28;20174;-70
2022/09/19 06:20:38;;;;;;;19.10;6.57;;;9.80;99.90;;;;;;5056093;28;20654;-70
2022/09/19 06:23:06;;;;;;;22.47;7.10;;;9.80;99.90;;;;;;5055730;28;20217;-70
2022/09/19 06:25:33;;;;;;;20.90;6.60;;;9.90;99.90;;;;;;5055565;28;20564;-70
2022/09/19 06:28:01;;;;;;;20.20;6.63;;;9.90;99.90;;;;;;5055751;28;20194;-70
2022/09/19 06:30:27;;;;;;;21.73;6.27;;;9.90;99.90;;;;;;5055603;28;20185;-70
2022/09/19 06:32:53;;;;;;;15.07;6.70;;;9.90;99.90;;;;;;5055604;28;20193;-71
2022/09/19 06:35:22;;;;;;;20.43;6.37;;;10.00;99.90;;;;;;5055407;28;20675;-70
2022/09/19 06:37:48;;;;;;;22.50;6.47;;;10.00;99.90;;;;;;5090034;28;20189;-70
2022/09/19 06:40:18;;;;;;;17.83;6.63;;;10.00;99.90;;;;;;5093993;28;20247;-70
2022/09/19 06:42:44;;;;;;;20.13;6.37;;;10.10;99.90;;;;;;5066233;28;20213;-70
2022/09/19 06:45:10;;;;;;;17.00;6.33;;;10.10;99.90;;;;;;5055849;28;20257;-70
2022/09/19 06:47:37;;;;;;;18.73;6.17;;;10.20;99.90;;;;;;5053984;28;20210;-70
2022/09/19 06:50:03;;;;;;;17.10;6.47;;;10.20;99.90;;;;;;5053820;28;20202;-70
2022/09/19 06:52:29;;;;;;;27.60;6.77;;;10.20;99.90;;;;;;5053912;28;20189;-70
2022/09/19 06:54:55;;;;;;;11.77;5.73;;;10.20;99.90;;;;;;5053812;28;20206;-70
2022/09/19 06:57:21;;;;;;;16.40;5.93;;;10.30;99.90;;;;;;5054682;28;20186;-70
2022/09/19 06:59:47;;;;;;;16.73;6.40;;;10.30;99.90;;;;;;5054681;28;20205;-70
2022/09/19 07:02:13;;;;;;;22.97;6.80;;;10.30;99.90;;;;;;5054935;28;20171;-70
2022/09/19 07:04:39;;;;;;;19.67;6.87;;;10.30;99.90;;;;;;5053384;28;20206;-70
2022/09/19 07:07:05;;;;;;;17.00;6.17;;;10.30;99.90;;;;;;5076944;28;20231;-70
2022/09/19 07:09:31;;;;;;;15.70;6.60;;;10.40;99.90;;;;;;5094808;28;20204;-70
2022/09/19 07:11:57;;;;;;;15.73;5.77;;;10.50;99.90;;;;;;5078093;28;20186;-70
2022/09/19 07:14:24;;;;;;;18.07;6.23;;;10.50;99.90;;;;;;5054601;28;20202;-70
2022/09/19 07:16:49;;;;;;;17.67;5.63;;;10.50;99.90;;;;;;5053358;28;20186;-70
2022/09/19 07:19:16;;;;;;;20.17;6.10;;;10.60;99.90;;;;;;5054824;28;20195;-70
2022/09/19 07:21:43;;;;;;;15.83;5.53;;;10.60;99.90;;;;;;5053304;28;20614;-70
2022/09/19 07:24:09;;;;;;;15.73;6.03;;;10.70;99.90;;;;;;5054703;28;20178;-70
2022/09/19 07:26:35;;;;;;;15.73;5.53;;;10.70;99.90;;;;;;5054114;28;20188;-70
2022/09/19 07:29:00;;;;;;;16.10;5.30;;;10.70;99.90;;;;;;5052949;28;20581;-70
2022/09/19 07:31:27;;;;;;;15.30;5.97;;;10.70;99.90;;;;;;5054533;28;20182;-70
2022/09/19 07:33:53;;;;;;;14.33;5.47;;;10.80;99.90;;;;;;5054247;28;20171;-71
2022/09/19 07:36:21;;;;;;;12.07;5.37;;;10.80;99.90;;;;;;5064014;28;20185;-69
2022/09/19 07:38:50;;;;;;;15.90;5.30;;;10.80;99.90;;;;;;5093158;28;20217;-70
2022/09/19 07:41:17;;;;;;;13.73;5.60;;;10.90;99.90;;;;;;5090247;28;20272;-70
2022/09/19 07:43:44;;;;;;;11.60;6.30;;;10.90;99.90;;;;;;5072883;28;20173;-70
2022/09/19 07:46:14;;;;;;;14.93;5.63;;;10.90;99.90;;;;;;5072734;28;20236;-73
2022/09/19 07:48:46;;;;;;;12.03;5.37;;;11.00;99.90;;;;;;5072757;28;20198;-70
2022/09/19 07:51:11;;;;;;;11.47;6.03;;;11.00;99.90;;;;;;5072663;28;20207;-70
2022/09/19 07:53:37;;;;;;;15.80;5.40;;;11.10;99.90;;;;;;5073979;28;20165;-70
2022/09/19 07:56:05;;;;;;;13.53;5.53;;;11.10;99.90;;;;;;5072293;28;20270;-70
2022/09/19 07:58:31;;;;;;;15.13;5.40;;;11.20;99.90;;;;;;5059254;28;20206;-70
2022/09/19 08:01:00;;;;;;;16.67;5.60;;;11.20;99.90;;;;;;5054067;28;20197;-69
2022/09/19 08:03:26;;;;;;;14.90;5.63;;;11.20;99.90;;;;;;5053709;28;20664;-70
2022/09/19 08:05:52;;;;;;;14.90;5.33;;;11.30;99.90;;;;;;5057749;28;20179;-69
2022/09/19 08:08:21;;;;;;;17.23;5.20;;;11.30;99.90;;;;;;5092602;28;20201;-69
2022/09/19 08:10:47;;;;;;;16.20;5.97;;;11.40;99.90;;;;;;5094000;28;20180;-69
2022/09/19 08:13:15;;;;;;;15.33;5.53;;;11.40;99.90;;;;;;5055456;28;20182;-69
2022/09/19 08:15:43;;;;;;;9.43;5.20;;;11.50;99.90;;;;;;5053302;28;20721;-69
2022/09/19 08:18:18;;;;;;;17.57;5.43;;;11.50;99.90;;;;;;5053447;28;20167;-69
2022/09/19 08:20:45;;;;;;;11.47;4.57;;;11.50;99.90;;;;;;5052198;28;20166;-69
2022/09/19 08:23:13;;;;;;;10.80;4.80;;;11.60;99.90;;;;;;5052241;28;20183;-69
2022/09/19 08:25:42;;;;;;;14.97;4.97;;;11.60;99.90;;;;;;5052156;28;20214;-69
2022/09/19 08:28:09;;;;;;;14.23;4.87;;;11.60;99.90;;;;;;5053459;28;20217;-70
2022/09/19 08:30:35;;;;;;;15.83;5.10;;;11.70;99.90;;;;;;5053462;28;20213;-69
2022/09/19 08:33:02;;;;;;;14.47;5.20;;;11.80;99.90;;;;;;5053478;28;20639;-69
2022/09/19 08:35:30;;;;;;;19.10;4.70;;;11.80;99.90;;;;;;5053224;28;20205;-69
2022/09/19 08:37:59;;;;;;;19.67;5.07;;;12.00;99.90;;;;;;5091246;28;20200;-70
2022/09/19 08:40:44;;;;;;;18.67;4.90;;;12.00;99.90;;;;;;5093586;28;20196;-70
2022/09/19 08:43:37;;;;;;;18.38;5.03;;;12.20;99.90;;;;;;5056761;28;20178;-69
2022/09/19 08:46:36;;;;;;;10.93;4.60;;;12.30;99.90;;;;;;5053969;28;20603;-70
2022/09/19 08:49:09;;;;;;;14.03;5.10;;;12.40;99.90;;;;;;5053574;28;20201;-69
2022/09/19 08:51:53;;;;;;;11.75;4.50;;;12.50;99.90;;;;;;5053241;28;20173;-70
2022/09/19 08:54:38;;;;;;;15.68;4.63;;;12.80;99.90;;;;;;5053566;28;20277;-70
2022/09/19 08:57:07;;;;;;;14.87;4.70;;;12.90;99.90;;;;;;5053203;28;20155;-70
2022/09/19 08:59:37;;;;;;;15.80;4.57;;;13.20;99.90;;;;;;5053236;28;20230;-69
2022/09/19 09:02:22;;;;;;;15.32;4.90;;;13.40;99.90;;;;;;5051981;28;20179;-69
2022/09/19 09:04:48;;;;;;;17.55;4.32;;;13.50;99.90;;;;;;5051915;28;20651;-69
2022/09/19 09:07:54;;;;;;;9.30;4.13;;;13.60;99.90;;;;;;5079574;28;20181;-69
2022/09/19 09:10:30;;;;;;;6.57;3.63;;;13.70;99.90;;;;;;5093009;28;20634;-70
2022/09/19 09:13:09;;;;;;;12.88;4.53;;;13.60;99.90;;;;;;5059461;28;20182;-69
2022/09/19 09:16:16;;;;;;;13.80;4.38;;;13.50;99.90;;;;;;5053386;28;20187;-69
2022/09/19 09:19:04;;;;;;;14.65;4.60;;;13.70;99.90;;;;;;5051587;28;20563;-69
2022/09/19 09:21:40;;;;;;;18.17;4.30;;;13.80;99.90;;;;;;5053294;28;20179;-70
2022/09/19 09:24:22;;;;;;;13.80;4.00;;;13.90;99.90;;;;;;5051761;28;20195;-69
2022/09/19 09:26:51;;;;;;;8.63;3.70;;;13.90;99.90;;;;;;5052973;28;20224;-69
2022/09/19 09:29:27;;;;;;;16.25;3.90;;;14.00;99.90;;;;;;5054509;28;20292;-69
2022/09/19 09:32:09;;;;;;;9.48;3.80;;;14.00;99.90;;;;;;5056828;28;20157;-69
2022/09/19 09:34:40;;;;;;;11.40;3.40;;;14.00;99.90;;;;;;5055622;28;20552;-69
2022/09/19 09:37:28;;;;;;;11.63;3.88;;;13.90;99.90;;;;;;5079730;28;20187;-70
2022/09/19 09:40:00;;;;;;;10.70;3.70;;;14.10;99.90;;;;;;5095496;28;20217;-70
2022/09/19 09:42:46;;;;;;;10.68;3.88;;;14.20;99.90;;;;;;5072095;28;20181;-69
2022/09/19 09:45:40;;;;;;;9.55;4.07;;;14.30;99.90;;;;;;5057151;28;20168;-70
2022/09/19 09:48:21;;;;;;;7.57;3.25;;;14.40;99.90;;;;;;5056695;28;20565;-69
2022/09/19 09:51:21;;;;;;;11.70;3.90;;;14.40;99.90;;;;;;5057075;28;20167;-70
2022/09/19 09:57:41;;;;;;;13.82;3.95;;;14.30;99.90;;;;;;5041268;28;20288;-69
2022/09/19 10:03:34;;;;;;;11.30;3.83;;;14.40;99.90;;;;;;5057527;28;20192;-69
2022/09/19 10:06:06;;;;;;;11.00;3.67;;;14.40;99.90;;;;;;5060267;28;20188;-69
2022/09/19 10:08:43;;;;;;;8.40;3.97;;;14.60;99.90;;;;;;5097480;28;20189;-70
2022/09/19 10:11:17;;;;;;;9.05;3.50;;;14.70;99.90;;;;;;5092469;28;20234;-70
2022/09/19 10:14:01;;;;;;;9.00;2.95;;;14.80;99.90;;;;;;5057525;28;20168;-69
2022/09/19 10:16:32;;;;;;;14.00;3.83;;;14.80;99.90;;;;;;5057615;28;20205;-69
2022/09/19 10:19:12;;;;;;;6.70;3.00;;;14.90;99.90;;;;;;5057019;28;20240;-68
2022/09/19 10:21:38;;;;;;;9.35;3.33;;;15.10;99.90;;;;;;5056466;28;20165;-68
2022/09/19 10:25:01;;;;;;;6.95;3.10;;;15.10;99.90;;;;;;5039616;28;20191;-68
2022/09/19 10:27:41;;;;;;;7.00;3.22;;;15.00;99.90;;;;;;5037806;28;20209;-71
2022/09/19 10:30:27;;;;;;;12.20;3.42;;;14.90;99.90;;;;;;5057143;28;20248;-68
2022/09/19 10:32:54;;;;;;;9.90;3.53;;;14.70;99.90;;;;;;5056173;28;20588;-68
2022/09/19 10:35:30;;;;;;;11.70;3.20;;;14.60;99.90;;;;;;5054354;28;20198;-67
2022/09/19 10:38:02;;;;;;;6.95;3.45;;;14.70;99.90;;;;;;5094185;28;20173;-69
2022/09/19 10:40:32;;;;;;;8.48;2.95;;;15.00;99.90;;;;;;5094620;28;20181;-69
2022/09/19 10:42:59;;;;;;;10.52;3.17;;;15.30;99.90;;;;;;5062304;28;20182;-69
2022/09/19 10:45:36;;;;;;;9.45;3.10;;;15.50;99.90;;;;;;5056428;28;20674;-71
2022/09/19 10:48:16;;;;;;;11.73;3.22;;;15.60;99.90;;;;;;5055621;28;20182;-69
2022/09/19 10:50:44;;;;;;;11.10;4.07;;;15.80;99.90;;;;;;5054025;28;20216;-67
2022/09/19 10:53:19;;;;;;;6.25;3.13;;;15.90;99.90;;;;;;5054484;28;20182;-69
2022/09/19 10:55:47;;;;;;;9.52;3.33;;;16.00;99.90;;;;;;5055381;28;20250;-69
2022/09/19 10:58:28;;;;;;;10.82;3.20;;;16.10;99.90;;;;;;5055135;28;20643;-71
2022/09/19 11:01:02;;;;;;;5.70;2.70;;;16.30;99.90;;;;;;5054350;28;20191;-71
2022/09/19 11:03:35;;;;;;;10.07;2.88;;;16.40;99.90;;;;;;5054297;28;20170;-71
2022/09/19 11:06:12;;;;;;;9.25;3.22;;;16.60;99.90;;;;;;5061711;28;20180;-71
2022/09/19 11:08:44;;;;;;;8.82;3.00;;;16.90;99.90;;;;;;5096135;28;20197;-71
2022/09/19 11:11:36;;;;;;;10.10;3.25;;;17.00;99.90;;;;;;5092163;28;20169;-71
2022/09/19 11:14:18;;;;;;;11.27;3.22;;;16.90;99.90;;;;;;5055102;28;20173;-71
2022/09/19 11:17:06;;;;;;;8.52;3.13;;;16.60;99.90;;;;;;5054996;28;20185;-71
2022/09/19 11:19:48;;;;;;;8.43;3.40;;;16.20;99.90;;;;;;5053603;28;20583;-70
2022/09/19 11:22:52;;;;;;;6.45;3.00;;;15.50;99.90;;;;;;5054860;28;20155;-70
2022/09/19 11:25:31;;;;;;;7.82;3.25;;;14.60;99.90;;;;;;5054522;28;20192;-70
2022/09/19 11:28:22;;;;;;;7.13;3.10;;;14.10;99.90;;;;;;5052831;28;20224;-70
2022/09/19 11:30:51;;;;;;;8.77;3.35;;;13.80;99.90;;;;;;5054220;28;20174;-70
2022/09/19 11:33:23;;;;;;;6.75;2.88;;;13.90;99.90;;;;;;5054229;28;20178;-70
2022/09/19 11:36:01;;;;;;;7.38;3.95;;;14.30;99.90;;;;;;5055929;28;20246;-70
2022/09/19 11:39:03;;;;;;;13.27;3.58;;;14.70;99.90;;;;;;5093144;28;20279;-70
2022/09/19 11:42:01;;;;;;;9.43;3.60;;;15.10;99.90;;;;;;5084221;28;20212;-70
2022/09/19 11:44:39;;;;;;;7.28;3.08;;;15.40;99.90;;;;;;5052879;28;20274;-70
2022/09/19 11:47:44;;;;;;;7.05;3.30;;;15.70;99.90;;;;;;5052834;28;20329;-70
2022/09/19 11:50:36;;;;;;;9.48;3.05;;;16.10;99.90;;;;;;5054102;28;20197;-70
2022/09/19 11:53:29;;;;;;;7.85;3.10;;;16.40;99.90;;;;;;5053762;28;20166;-70
2022/09/19 11:56:15;;;;;;;8.77;3.35;;;16.40;99.90;;;;;;5053923;28;20721;-70
2022/09/19 11:59:17;;;;;;;9.27;3.55;;;16.50;99.90;;;;;;5053507;28;20288;-70
2022/09/19 12:01:45;;;;;;;7.35;3.10;;;16.20;99.90;;;;;;5032517;28;20182;-70
2022/09/19 12:04:38;;;;;;;10.13;3.25;;;16.10;99.90;;;;;;5052699;28;20175;-71
2022/09/19 12:07:25;;;;;;;7.05;3.00;;;16.50;99.90;;;;;;5077435;28;20667;-70
2022/09/19 12:10:02;;;;;;;11.05;2.65;;;16.70;99.90;;;;;;5092761;28;20208;-70
2022/09/19 12:12:31;;;;;;;7.63;2.72;;;16.70;99.90;;;;;;5068794;28;20178;-70
2022/09/19 12:15:22;;;;;;;6.10;3.10;;;16.70;99.90;;;;;;5053727;28;20285;-70
2022/09/19 12:18:06;;;;;;;8.55;3.10;;;16.80;99.90;;;;;;5053811;28;20531;-70
2022/09/19 12:20:42;;;;;;;10.90;3.70;;;16.70;99.90;;;;;;5052697;28;20166;-71
2022/09/19 12:26:02;;;;;;;5.50;2.78;;;16.30;99.90;;;;;;5053751;28;20536;-70
2022/09/19 12:28:34;;;;;;;6.82;2.67;;;16.40;99.90;;;;;;5053281;28;20248;-70
2022/09/19 12:31:04;;;;;;;5.75;2.75;;;16.60;99.90;;;;;;5052237;28;20174;-71
2022/09/19 12:33:37;;;;;;;7.78;2.85;;;16.80;99.90;;;;;;5053578;28;20182;-70
2022/09/19 12:36:32;;;;;;;4.85;2.67;;;17.10;99.90;;;;;;5058874;28;20204;-71
2022/09/19 12:39:15;;;;;;;7.47;2.80;;;16.90;99.90;;;;;;5093739;28;20207;-70
2022/09/19 12:42:08;;;;;;;11.38;3.10;;;16.80;99.90;;;;;;5081449;28;20200;-70
2022/09/19 12:44:56;;;;;;;5.88;2.85;;;16.30;99.90;;;;;;5052191;28;20639;-71
2022/09/19 12:47:56;;;;;;;7.55;3.20;;;16.00;99.90;;;;;;5053549;28;20159;-70
2022/09/19 12:50:32;;;;;;;6.03;3.30;;;15.60;99.90;;;;;;5052887;28;20197;-70
2022/09/19 12:53:26;;;;;;;8.88;3.67;;;15.40;99.90;;;;;;5052184;28;20646;-70
2022/09/19 12:56:15;;;;;;;7.20;2.70;;;15.60;99.90;;;;;;5053157;28;20187;-71
2022/09/19 12:59:08;;;;;;;9.98;3.00;;;15.50;99.90;;;;;;5051918;28;20259;-72
2022/09/19 13:01:47;;;;;;;9.82;3.28;;;15.30;99.90;;;;;;5053663;28;20159;-70
2022/09/19 13:04:51;;;;;;;5.13;2.58;;;15.10;99.90;;;;;;5055193;28;20154;-71
2022/09/19 13:07:35;;;;;;;8.95;2.92;;;15.50;99.90;;;;;;5084518;28;20173;-70
2022/09/19 13:10:05;;;;;;;8.48;3.22;;;15.90;99.90;;;;;;5097293;28;20722;-70
2022/09/19 13:12:53;;;;;;;8.05;2.80;;;16.20;99.90;;;;;;5071224;28;20228;-70
2022/09/19 13:15:24;;;;;;;5.00;2.88;;;16.40;99.90;;;;;;5057058;28;20277;-71
2022/09/19 13:23:31;;;;;;;5.50;2.50;;;17.00;99.90;;;;;;5057397;28;20585;-69
2022/09/19 13:25:57;;;;;;;5.95;2.40;;;17.10;99.90;;;;;;5056863;28;20188;-70
2022/09/19 13:28:34;;;;;;;4.57;2.63;;;17.00;99.90;;;;;;5056408;28;20206;-69
2022/09/19 13:31:05;;;;;;;3.70;2.17;;;17.50;99.90;;;;;;5057087;28;20163;-71
2022/09/19 13:33:48;;;;;;;3.47;2.33;;;17.40;99.90;;;;;;5057274;28;20240;-69
2022/09/19 13:36:37;;;;;;;5.82;2.42;;;17.30;99.90;;;;;;5066407;28;20205;-70
2022/09/19 13:39:04;;;;;;;4.63;2.40;;;17.10;99.90;;;;;;5096765;28;20245;-69